Clemville, Texas
Current Conditions -  °F | °C
As of 2:53 PM on Saturday 20 Dec 2014 (Local Time) from KLBX Reporting Station
Overcast Overcast  
Wind Chill: 54°   Ceiling: 1200
Heat Index: 54°   Visibility: 10mi
Dew Point: 51°   Wind: 8mph
Humidity: 90%   Direction: 30°NNE
Pressure: 30.14"   Gusts: NA
Location:  28.8997°N, 95.7887°W
Report Text: KLBX 202053Z AUTO 03007KT 10SM OVC012 12/11 A3014 RMK AO2 SLP206 T01220106 56016
Loading
Personal Weather Stations






























Interactive Weather Map New forecast layout! Learn more

10-Day Weather Forecast

Advertisements
Track Severe Weather on mobile